Time;durP1;ratioP1;P1;durP2;ratioP2;P2;SDS_P1;SDS_P2;PMS_P1;PMS_P2;Temp;Humidity;BMP_temperature;BMP_pressure;BME280_temperature;BME280_humidity;BME280_pressure;Samples;Min_cycle;Max_cycle;Signal;HPM_P1;HPM_P2
2022/01/09 00:00:37;;;;;;;8.75;3.03;;;4.70;79.40;;;;;;5015578;28;20225;-75
2022/01/09 00:03:06;;;;;;;5.03;2.80;;;4.70;79.40;;;;;;5015795;28;20957;-75
2022/01/09 00:05:35;;;;;;;4.60;2.60;;;4.70;79.40;;;;;;5000297;28;20216;-75
2022/01/09 00:08:03;;;;;;;6.20;2.60;;;4.70;79.50;;;;;;5001565;28;20205;-75
2022/01/09 00:10:32;;;;;;;5.78;3.00;;;4.70;79.80;;;;;;5013926;28;20217;-75
2022/01/09 00:13:02;;;;;;;4.90;2.47;;;4.80;79.50;;;;;;5012157;28;20193;-75
2022/01/09 00:15:30;;;;;;;3.90;2.38;;;4.70;79.50;;;;;;5014299;28;20244;-75
2022/01/09 00:17:58;;;;;;;4.93;2.80;;;4.70;79.90;;;;;;4997068;28;20206;-75
2022/01/09 00:20:26;;;;;;;4.90;3.05;;;4.70;79.70;;;;;;4998668;28;20207;-75
2022/01/09 00:22:55;;;;;;;5.40;2.90;;;4.70;79.70;;;;;;4999476;28;20742;-75
2022/01/09 00:25:24;;;;;;;4.85;2.55;;;4.70;80.00;;;;;;5013535;28;20717;-75
2022/01/09 00:27:53;;;;;;;5.15;3.00;;;4.70;80.00;;;;;;5014047;28;20201;-75
2022/01/09 00:30:24;;;;;;;4.65;2.97;;;4.70;80.00;;;;;;5015108;28;20640;-76
2022/01/09 00:32:52;;;;;;;5.93;2.95;;;4.70;80.00;;;;;;5014523;28;20288;-75
2022/01/09 00:35:21;;;;;;;7.90;2.60;;;4.80;80.10;;;;;;5014100;28;20283;-75
2022/01/09 00:37:49;;;;;;;5.22;3.25;;;4.70;80.70;;;;;;5015950;28;20196;-75
2022/01/09 00:40:18;;;;;;;4.13;2.30;;;4.80;80.20;;;;;;5001528;28;20200;-75
2022/01/09 00:42:46;;;;;;;4.47;2.72;;;4.80;80.50;;;;;;5009061;28;20204;-75
2022/01/09 00:45:16;;;;;;;4.47;2.80;;;4.90;80.40;;;;;;5000967;28;20204;-74
2022/01/09 00:47:46;;;;;;;4.55;3.03;;;4.90;80.50;;;;;;5016445;28;20205;-75
2022/01/09 00:50:16;;;;;;;9.68;3.10;;;4.90;80.50;;;;;;5001810;28;21667;-76
2022/01/09 00:52:44;;;;;;;6.47;3.08;;;4.90;80.70;;;;;;5014171;28;20209;-75
2022/01/09 00:55:12;;;;;;;5.15;2.80;;;5.00;80.60;;;;;;5018030;28;20208;-75
2022/01/09 00:57:40;;;;;;;4.63;2.83;;;5.00;80.70;;;;;;5018714;28;20224;-75
2022/01/09 01:00:09;;;;;;;4.82;2.67;;;5.00;80.70;;;;;;5000970;28;20197;-75
2022/01/09 01:02:37;;;;;;;4.70;3.20;;;5.10;80.80;;;;;;5004070;28;20205;-74
2022/01/09 01:05:08;;;;;;;5.28;3.13;;;5.10;80.80;;;;;;5004258;28;20209;-75
2022/01/09 01:07:37;;;;;;;5.80;3.25;;;5.20;80.80;;;;;;5001074;28;20231;-75
2022/01/09 01:10:11;;;;;;;5.72;2.80;;;5.20;80.70;;;;;;5015381;28;20205;-74
2022/01/09 01:12:39;;;;;;;4.15;2.95;;;5.20;80.80;;;;;;5001033;28;20201;-74
2022/01/09 01:15:08;;;;;;;8.85;4.03;;;5.20;80.70;;;;;;5000307;28;20735;-74
2022/01/09 01:17:36;;;;;;;5.22;3.40;;;5.20;80.80;;;;;;5022389;28;20221;-74
2022/01/09 01:20:08;;;;;;;6.10;3.05;;;5.20;80.80;;;;;;5009345;28;20280;-74
2022/01/09 01:22:36;;;;;;;5.70;3.10;;;5.30;80.90;;;;;;5016879;28;20209;-74
2022/01/09 01:25:06;;;;;;;4.82;2.95;;;5.30;80.80;;;;;;5015467;28;20781;-74
2022/01/09 01:27:34;;;;;;;5.03;2.72;;;5.20;80.80;;;;;;5013122;28;20779;-74
2022/01/09 01:30:02;;;;;;;4.38;3.08;;;5.20;80.90;;;;;;5013013;28;20221;-74
2022/01/09 01:32:30;;;;;;;4.22;2.92;;;5.10;80.90;;;;;;4997964;28;20233;-75
2022/01/09 01:34:58;;;;;;;3.78;2.58;;;5.10;81.00;;;;;;5003552;28;20227;-74
2022/01/09 01:37:28;;;;;;;4.43;2.85;;;5.10;81.00;;;;;;5013868;28;20287;-74
2022/01/09 01:39:56;;;;;;;4.45;2.42;;;5.10;81.10;;;;;;5017674;28;20609;-74
2022/01/09 01:42:24;;;;;;;6.10;3.10;;;5.10;81.00;;;;;;5016698;28;20197;-73
2022/01/09 01:44:52;;;;;;;5.03;2.80;;;5.10;81.40;;;;;;5016358;28;21010;-74
2022/01/09 01:47:21;;;;;;;4.30;2.80;;;5.10;81.40;;;;;;5011674;28;20236;-76
2022/01/09 01:49:50;;;;;;;4.93;2.55;;;5.10;81.50;;;;;;5018423;28;20471;-74
2022/01/09 01:52:23;;;;;;;5.68;2.53;;;5.10;81.20;;;;;;5003321;28;20197;-73
2022/01/09 01:54:53;;;;;;;5.43;2.80;;;5.10;81.30;;;;;;5016560;28;20257;-73
2022/01/09 01:57:21;;;;;;;4.82;2.80;;;5.20;81.50;;;;;;5002697;28;20308;-74
2022/01/09 01:59:49;;;;;;;4.38;2.75;;;5.20;81.60;;;;;;4996447;28;20206;-73
2022/01/09 02:02:17;;;;;;;4.28;2.50;;;5.20;81.60;;;;;;5012868;28;20568;-73
2022/01/09 02:04:45;;;;;;;3.85;2.47;;;5.20;81.40;;;;;;5018804;28;20203;-74
2022/01/09 02:07:13;;;;;;;3.20;2.30;;;5.20;81.50;;;;;;5001615;28;20220;-73
2022/01/09 02:09:41;;;;;;;5.10;2.45;;;5.20;81.50;;;;;;5016098;28;20359;-74
2022/01/09 02:12:11;;;;;;;7.30;2.85;;;5.20;81.50;;;;;;4998685;28;20213;-76
2022/01/09 02:14:43;;;;;;;3.55;2.28;;;5.20;81.70;;;;;;5017781;28;20207;-73
2022/01/09 02:17:15;;;;;;;4.88;2.67;;;5.20;81.70;;;;;;5012508;28;20233;-74
2022/01/09 02:19:51;;;;;;;4.03;2.38;;;5.20;81.50;;;;;;5000740;28;20225;-76
2022/01/09 02:22:19;;;;;;;4.10;2.50;;;5.20;81.80;;;;;;5012814;28;20202;-73
2022/01/09 02:24:47;;;;;;;3.05;2.00;;;5.20;81.80;;;;;;5002867;28;20205;-76
2022/01/09 02:27:16;;;;;;;3.28;2.20;;;5.20;81.80;;;;;;5013568;28;20235;-73
2022/01/09 02:29:46;;;;;;;10.48;2.92;;;5.20;81.80;;;;;;5015882;28;20237;-73
2022/01/09 02:32:16;;;;;;;3.95;2.17;;;5.30;81.80;;;;;;5011086;28;20618;-73
2022/01/09 02:34:47;;;;;;;3.65;1.98;;;5.20;81.70;;;;;;4996754;28;20221;-73
2022/01/09 02:37:16;;;;;;;5.03;2.05;;;5.20;81.90;;;;;;4998386;28;20229;-73
2022/01/09 02:39:44;;;;;;;2.85;1.80;;;5.20;81.80;;;;;;5003746;28;20205;-73
2022/01/09 02:42:18;;;;;;;4.90;1.75;;;5.20;81.80;;;;;;5012969;28;20740;-74
2022/01/09 02:44:46;;;;;;;4.10;2.63;;;5.20;82.00;;;;;;5010681;28;20846;-74
2022/01/09 02:47:15;;;;;;;4.30;1.80;;;5.20;82.00;;;;;;5014708;28;20286;-74
2022/01/09 02:49:47;;;;;;;4.43;2.53;;;5.20;81.90;;;;;;5018735;28;20271;-74
2022/01/09 02:52:29;;;;;;;3.67;2.22;;;5.20;82.00;;;;;;5001397;28;20208;-74
2022/01/09 02:55:11;;;;;;;3.45;2.10;;;5.20;82.10;;;;;;5001035;28;20205;-74
2022/01/09 02:57:40;;;;;;;4.53;2.40;;;5.20;82.10;;;;;;5003630;28;20244;-74
2022/01/09 03:00:11;;;;;;;3.20;1.88;;;5.20;82.20;;;;;;5018232;28;20211;-73
2022/01/09 03:02:39;;;;;;;2.92;1.90;;;5.20;82.20;;;;;;5016052;28;20198;-73
2022/01/09 03:05:08;;;;;;;3.10;1.80;;;5.20;82.20;;;;;;5002208;28;20197;-74
2022/01/09 03:07:38;;;;;;;3.50;2.05;;;5.30;82.30;;;;;;4994838;28;20225;-74
2022/01/09 03:10:07;;;;;;;3.15;2.20;;;5.30;82.50;;;;;;5002976;28;20225;-74
2022/01/09 03:12:36;;;;;;;3.88;2.05;;;5.30;82.30;;;;;;4997564;28;20208;-74
2022/01/09 03:15:06;;;;;;;3.15;1.77;;;5.30;82.40;;;;;;5001435;28;20254;-74
2022/01/09 03:17:35;;;;;;;3.53;2.10;;;5.30;82.30;;;;;;4999297;28;20240;-74
2022/01/09 03:20:06;;;;;;;3.10;1.70;;;5.30;82.50;;;;;;5015173;28;20808;-74
2022/01/09 03:22:34;;;;;;;3.38;1.67;;;5.40;82.40;;;;;;5012552;28;20197;-74
2022/01/09 03:25:03;;;;;;;4.07;1.90;;;5.40;82.40;;;;;;4995815;28;20227;-74
2022/01/09 03:27:31;;;;;;;3.00;2.00;;;5.40;82.60;;;;;;5013810;28;20231;-74
2022/01/09 03:30:00;;;;;;;3.70;1.50;;;5.40;82.50;;;;;;5016255;28;20829;-74
2022/01/09 03:32:29;;;;;;;4.18;1.92;;;5.40;82.70;;;;;;5008595;28;20314;-74
2022/01/09 03:34:57;;;;;;;2.97;1.90;;;5.40;82.70;;;;;;5019196;28;20200;-74
2022/01/09 03:37:24;;;;;;;2.65;1.50;;;5.50;82.70;;;;;;5017701;28;20802;-74
2022/01/09 03:39:53;;;;;;;5.28;1.95;;;5.50;82.90;;;;;;5015428;28;20205;-74
2022/01/09 03:42:22;;;;;;;3.40;1.90;;;5.50;82.80;;;;;;5013224;28;20202;-75
2022/01/09 03:44:50;;;;;;;3.58;1.40;;;5.60;82.90;;;;;;5013616;28;20201;-74
2022/01/09 03:47:18;;;;;;;3.40;1.63;;;5.60;82.80;;;;;;5015044;28;20323;-74
2022/01/09 03:49:46;;;;;;;2.75;1.63;;;5.60;83.00;;;;;;5009661;28;20319;-74
2022/01/09 03:52:14;;;;;;;3.50;1.50;;;5.60;82.90;;;;;;4996558;28;20721;-74
2022/01/09 03:54:42;;;;;;;2.45;1.23;;;5.60;82.90;;;;;;5009954;28;20675;-73
2022/01/09 03:57:11;;;;;;;2.50;1.27;;;5.60;82.90;;;;;;5011810;28;20221;-74
2022/01/09 03:59:41;;;;;;;2.60;1.40;;;5.60;83.00;;;;;;4999935;28;20563;-74
2022/01/09 04:02:09;;;;;;;3.85;1.10;;;5.60;83.30;;;;;;5010882;28;20264;-74
2022/01/09 04:04:37;;;;;;;3.60;1.20;;;5.60;83.30;;;;;;5014149;28;20251;-74
2022/01/09 04:07:06;;;;;;;2.13;1.00;;;5.60;83.30;;;;;;5016351;28;20222;-74
2022/01/09 04:09:39;;;;;;;2.25;1.10;;;5.60;83.30;;;;;;5017466;28;20286;-74
2022/01/09 04:12:15;;;;;;;2.10;0.98;;;5.70;83.40;;;;;;5003459;28;20215;-74
2022/01/09 04:14:45;;;;;;;2.30;1.10;;;5.70;83.50;;;;;;5008922;28;20213;-74
2022/01/09 04:17:24;;;;;;;2.33;1.00;;;5.70;83.40;;;;;;5014964;28;20237;-73
2022/01/09 04:19:53;;;;;;;2.15;1.00;;;5.70;83.70;;;;;;5013426;28;20215;-74
2022/01/09 04:22:20;;;;;;;2.13;0.98;;;5.70;83.60;;;;;;4997958;28;20636;-74
2022/01/09 04:24:48;;;;;;;2.10;0.98;;;5.80;83.70;;;;;;5016886;28;20294;-74
2022/01/09 04:27:16;;;;;;;2.20;0.90;;;5.80;83.90;;;;;;5015332;28;20359;-73
2022/01/09 04:29:45;;;;;;;1.95;0.93;;;5.80;83.90;;;;;;5014696;28;20266;-74
2022/01/09 04:32:13;;;;;;;2.00;0.88;;;5.80;83.80;;;;;;5004463;28;20302;-74
2022/01/09 04:34:41;;;;;;;2.42;0.90;;;5.80;84.50;;;;;;5011937;28;20194;-74
2022/01/09 04:37:10;;;;;;;1.90;0.75;;;5.80;84.20;;;;;;5013288;28;20327;-74
2022/01/09 04:39:38;;;;;;;2.45;1.00;;;5.80;84.30;;;;;;5020174;28;20836;-74
2022/01/09 04:42:07;;;;;;;2.00;0.80;;;5.90;84.20;;;;;;5002062;28;20797;-74
2022/01/09 04:44:35;;;;;;;1.80;0.70;;;5.90;84.40;;;;;;4997769;28;20267;-74
2022/01/09 04:47:09;;;;;;;2.28;0.80;;;5.90;84.40;;;;;;5014546;28;20229;-74
2022/01/09 04:49:40;;;;;;;2.35;0.73;;;5.90;84.50;;;;;;4998425;28;20212;-74
2022/01/09 04:52:12;;;;;;;1.80;0.70;;;5.90;84.80;;;;;;5004263;28;20217;-75
2022/01/09 04:54:40;;;;;;;2.00;0.90;;;6.00;84.30;;;;;;5015530;28;20224;-75
2022/01/09 04:57:09;;;;;;;1.90;0.68;;;6.00;84.40;;;;;;5012405;28;20745;-74
2022/01/09 04:59:37;;;;;;;1.85;0.70;;;6.00;84.50;;;;;;5011843;28;20194;-74
2022/01/09 05:02:06;;;;;;;1.98;0.60;;;6.00;84.40;;;;;;5001746;28;20218;-74
2022/01/09 05:04:34;;;;;;;2.13;0.80;;;6.00;84.50;;;;;;5012738;28;20669;-74
2022/01/09 05:07:03;;;;;;;1.80;0.70;;;6.00;84.50;;;;;;5015522;28;20244;-74
2022/01/09 05:09:31;;;;;;;1.80;0.63;;;6.00;84.30;;;;;;4995995;28;20260;-74
2022/01/09 05:11:59;;;;;;;1.80;0.70;;;6.00;84.70;;;;;;4999603;28;20234;-74
2022/01/09 05:14:27;;;;;;;1.70;0.60;;;5.90;85.00;;;;;;4999363;28;20215;-74
2022/01/09 05:16:55;;;;;;;1.85;0.80;;;6.00;84.60;;;;;;4996493;28;20233;-74
2022/01/09 05:19:28;;;;;;;1.80;0.80;;;6.00;84.70;;;;;;5019338;28;20206;-74
2022/01/09 05:21:57;;;;;;;2.30;0.85;;;6.00;84.80;;;;;;5015387;28;20204;-74
2022/01/09 05:24:25;;;;;;;1.90;0.70;;;6.00;84.80;;;;;;4997882;28;20206;-74
2022/01/09 05:26:54;;;;;;;1.80;0.80;;;5.90;84.80;;;;;;4996360;28;20299;-74
2022/01/09 05:29:23;;;;;;;1.70;0.70;;;6.00;84.80;;;;;;5016257;28;20215;-74
2022/01/09 05:31:51;;;;;;;2.22;0.68;;;5.90;84.90;;;;;;5015332;28;20765;-74
2022/01/09 05:34:19;;;;;;;2.00;0.77;;;5.90;85.00;;;;;;5011317;28;20879;-74
2022/01/09 05:36:48;;;;;;;1.98;0.93;;;5.90;84.90;;;;;;5020959;28;20279;-74
2022/01/09 05:39:16;;;;;;;2.15;0.80;;;5.90;84.80;;;;;;5017984;28;20267;-74
2022/01/09 05:41:45;;;;;;;1.80;0.80;;;5.90;85.00;;;;;;5018492;28;20205;-75
2022/01/09 05:44:13;;;;;;;1.85;0.70;;;5.90;84.90;;;;;;5016088;28;20219;-74
2022/01/09 05:46:41;;;;;;;2.35;0.68;;;6.00;84.90;;;;;;4999661;28;20322;-74
2022/01/09 05:49:09;;;;;;;1.88;0.70;;;6.00;84.70;;;;;;4997189;28;20236;-74
2022/01/09 05:51:37;;;;;;;1.70;0.65;;;6.00;84.70;;;;;;4999645;28;20229;-73
2022/01/09 05:54:06;;;;;;;1.85;0.60;;;5.90;84.70;;;;;;5002563;28;20217;-75
2022/01/09 05:56:34;;;;;;;1.90;0.65;;;5.90;84.80;;;;;;5016102;28;20229;-74
2022/01/09 05:59:02;;;;;;;1.80;0.50;;;5.90;84.70;;;;;;5017710;28;20208;-74
2022/01/09 06:01:30;;;;;;;1.70;0.60;;;5.90;84.60;;;;;;5017279;28;20229;-74
2022/01/09 06:03:58;;;;;;;1.60;0.50;;;5.90;84.60;;;;;;5004378;28;20202;-73
2022/01/09 06:06:26;;;;;;;1.80;0.50;;;5.90;84.60;;;;;;5014783;28;20663;-74
2022/01/09 06:08:54;;;;;;;1.70;0.60;;;5.90;84.50;;;;;;5021366;28;20193;-74
2022/01/09 06:11:23;;;;;;;2.00;0.60;;;5.80;84.60;;;;;;5018042;28;20199;-74
2022/01/09 06:13:51;;;;;;;2.60;0.50;;;5.80;84.60;;;;;;5020998;28;20202;-74
2022/01/09 06:16:19;;;;;;;4.18;0.68;;;5.80;84.60;;;;;;5003983;28;20827;-74
2022/01/09 06:18:47;;;;;;;2.00;0.60;;;5.80;84.60;;;;;;5016670;28;20259;-74
2022/01/09 06:21:15;;;;;;;1.70;0.60;;;5.80;84.70;;;;;;5018374;28;20856;-74
2022/01/09 06:23:43;;;;;;;1.65;0.50;;;5.80;84.60;;;;;;4998404;28;20279;-74
2022/01/09 06:26:11;;;;;;;2.20;0.68;;;5.70;84.60;;;;;;5002105;28;20233;-74
2022/01/09 06:28:40;;;;;;;1.60;0.50;;;5.70;84.70;;;;;;5019457;28;20283;-74
2022/01/09 06:31:08;;;;;;;1.90;0.75;;;5.70;84.60;;;;;;5016258;28;20238;-74
2022/01/09 06:33:36;;;;;;;2.25;0.60;;;5.70;84.60;;;;;;5015898;28;20268;-74
2022/01/09 06:36:05;;;;;;;2.78;0.70;;;5.70;84.60;;;;;;5016527;28;20222;-74
2022/01/09 06:38:32;;;;;;;2.85;0.70;;;5.70;84.50;;;;;;5014161;28;20201;-74
2022/01/09 06:41:00;;;;;;;1.95;0.70;;;5.70;84.50;;;;;;5018056;28;20749;-75
2022/01/09 06:43:28;;;;;;;4.32;1.10;;;5.70;84.40;;;;;;5000692;28;20194;-74
2022/01/09 06:45:58;;;;;;;2.10;0.80;;;5.60;84.40;;;;;;4995793;28;20240;-74
2022/01/09 06:48:26;;;;;;;2.53;0.80;;;5.60;84.50;;;;;;5001320;28;20205;-74
2022/01/09 06:50:54;;;;;;;2.20;0.93;;;5.60;84.40;;;;;;5002910;28;20210;-74
2022/01/09 06:53:21;;;;;;;3.10;0.75;;;5.60;84.50;;;;;;5018380;28;20214;-74
2022/01/09 06:55:49;;;;;;;2.10;0.80;;;5.60;84.50;;;;;;5012792;28;20225;-74
2022/01/09 06:58:18;;;;;;;4.97;1.10;;;5.50;84.50;;;;;;5014137;28;20235;-74
2022/01/09 07:00:47;;;;;;;2.75;0.82;;;5.60;84.40;;;;;;5017629;28;20233;-73
2022/01/09 07:03:16;;;;;;;3.28;0.90;;;5.50;84.50;;;;;;5017529;28;20843;-74
2022/01/09 07:05:44;;;;;;;4.05;1.00;;;5.60;84.40;;;;;;5016988;28;20272;-74
2022/01/09 07:08:12;;;;;;;2.60;0.93;;;5.60;84.30;;;;;;5017445;28;20251;-74
2022/01/09 07:10:40;;;;;;;5.72;1.08;;;5.50;84.60;;;;;;5017808;28;20262;-74
2022/01/09 07:13:08;;;;;;;2.67;1.23;;;5.50;84.60;;;;;;5016532;28;20283;-74
2022/01/09 07:15:36;;;;;;;2.58;1.10;;;5.50;84.70;;;;;;5012545;28;20249;-74
2022/01/09 07:18:04;;;;;;;3.85;1.15;;;5.50;84.70;;;;;;5013215;28;20255;-74
2022/01/09 07:20:35;;;;;;;2.50;1.00;;;5.50;84.60;;;;;;5015918;28;20201;-74
2022/01/09 07:23:03;;;;;;;4.22;1.10;;;5.50;84.70;;;;;;4998873;28;20726;-74
2022/01/09 07:25:31;;;;;;;3.65;1.70;;;5.50;84.70;;;;;;5017521;28;20666;-74
2022/01/09 07:27:59;;;;;;;4.80;1.20;;;5.50;84.60;;;;;;5016818;28;20259;-75
2022/01/09 07:30:28;;;;;;;4.55;1.33;;;5.60;84.60;;;;;;5012208;28;20240;-73
2022/01/09 07:32:56;;;;;;;4.63;1.30;;;5.60;84.40;;;;;;4996669;28;20444;-74
2022/01/09 07:35:24;;;;;;;8.20;2.40;;;5.60;84.40;;;;;;4998810;28;20240;-74
2022/01/09 07:37:54;;;;;;;4.97;1.50;;;5.60;84.40;;;;;;5015959;28;20205;-74
2022/01/09 07:40:22;;;;;;;3.55;1.35;;;5.60;84.50;;;;;;5016807;28;21862;-73
2022/01/09 07:42:50;;;;;;;4.88;1.33;;;5.50;84.50;;;;;;5017833;28;20247;-74
2022/01/09 07:45:24;;;;;;;2.92;1.10;;;5.50;84.60;;;;;;5003276;28;20263;-74
2022/01/09 07:47:52;;;;;;;3.33;1.50;;;5.60;84.50;;;;;;5017942;28;20208;-74
2022/01/09 07:50:20;;;;;;;3.83;1.40;;;5.50;84.60;;;;;;5016544;28;20285;-74
2022/01/09 07:52:48;;;;;;;7.80;1.20;;;5.50;84.50;;;;;;4998637;28;20214;-75
2022/01/09 07:55:19;;;;;;;7.75;1.80;;;5.50;84.40;;;;;;5019828;28;20209;-75
2022/01/09 07:57:47;;;;;;;4.20;1.40;;;5.40;84.70;;;;;;5017031;28;20224;-74
2022/01/09 08:00:17;;;;;;;3.78;1.80;;;5.50;84.50;;;;;;4996321;28;20197;-74
2022/01/09 08:02:47;;;;;;;4.47;1.80;;;5.40;84.70;;;;;;5002695;28;20716;-74
2022/01/09 08:05:17;;;;;;;3.80;1.20;;;5.30;84.70;;;;;;5012544;28;20208;-75
2022/01/09 08:07:45;;;;;;;6.32;1.70;;;5.30;84.80;;;;;;5014543;28;20775;-74
2022/01/09 08:10:13;;;;;;;5.00;1.83;;;5.30;84.80;;;;;;5003741;28;20804;-75
2022/01/09 08:12:42;;;;;;;7.07;1.60;;;5.30;85.00;;;;;;5013249;28;20201;-75
2022/01/09 08:15:11;;;;;;;3.17;1.65;;;5.30;84.90;;;;;;4920195;28;20233;-74
2022/01/09 08:17:39;;;;;;;5.70;1.92;;;5.30;85.00;;;;;;5019404;28;20225;-75
2022/01/09 08:20:08;;;;;;;5.93;1.60;;;5.40;84.80;;;;;;5003458;28;20296;-75
2022/01/09 08:22:36;;;;;;;5.30;2.22;;;5.40;84.80;;;;;;5015444;28;20202;-74
2022/01/09 08:25:06;;;;;;;3.72;1.67;;;5.40;84.70;;;;;;4999738;28;20620;-74
2022/01/09 08:27:33;;;;;;;5.07;2.00;;;5.40;84.80;;;;;;5012853;28;20236;-75
2022/01/09 08:30:04;;;;;;;6.10;2.60;;;5.40;84.90;;;;;;5012232;28;20236;-74
2022/01/09 08:32:32;;;;;;;6.80;2.50;;;5.40;85.00;;;;;;5009623;28;20221;-74
2022/01/09 08:35:00;;;;;;;4.25;1.85;;;5.40;85.00;;;;;;5011670;28;20252;-74
2022/01/09 08:37:28;;;;;;;6.13;2.63;;;5.50;85.00;;;;;;5011808;28;20221;-74
2022/01/09 08:39:57;;;;;;;7.00;2.40;;;5.40;85.00;;;;;;5017125;28;20698;-74
2022/01/09 08:42:25;;;;;;;7.22;2.22;;;5.40;85.10;;;;;;5016623;28;20654;-74
2022/01/09 08:44:53;;;;;;;10.15;2.30;;;5.50;85.10;;;;;;5019485;28;20280;-75
2022/01/09 08:47:24;;;;;;;4.57;2.05;;;5.50;85.30;;;;;;5012355;28;20240;-75
2022/01/09 08:49:52;;;;;;;6.15;2.85;;;5.50;85.00;;;;;;5013848;28;20202;-76
2022/01/09 08:52:20;;;;;;;6.80;2.13;;;5.50;84.90;;;;;;5000354;28;20215;-75
2022/01/09 08:54:50;;;;;;;4.88;1.88;;;5.50;84.90;;;;;;5014638;28;20229;-75
2022/01/09 08:57:18;;;;;;;6.18;1.80;;;5.50;84.90;;;;;;5013746;28;20221;-75
2022/01/09 08:59:46;;;;;;;3.30;1.60;;;5.50;84.70;;;;;;5017287;28;20189;-74
2022/01/09 09:02:14;;;;;;;7.15;2.20;;;5.50;85.00;;;;;;5009580;28;20897;-74
2022/01/09 09:04:44;;;;;;;6.43;1.73;;;5.50;85.00;;;;;;5004741;28;20206;-74
2022/01/09 09:07:14;;;;;;;5.05;1.98;;;5.50;84.90;;;;;;5012878;28;20222;-74
2022/01/09 09:09:42;;;;;;;5.88;2.20;;;5.50;84.90;;;;;;5019070;28;20254;-74
2022/01/09 09:12:10;;;;;;;6.00;1.75;;;5.50;84.70;;;;;;5021603;28;20212;-74
2022/01/09 09:14:38;;;;;;;4.97;2.00;;;5.50;84.90;;;;;;5003104;28;20220;-74
2022/01/09 09:17:07;;;;;;;5.05;2.08;;;5.50;84.90;;;;;;5002500;28;20241;-74
2022/01/09 09:19:35;;;;;;;7.15;2.10;;;5.50;84.90;;;;;;5016029;28;20331;-74
2022/01/09 09:22:04;;;;;;;5.35;2.40;;;5.50;84.90;;;;;;5022016;28;20248;-75
2022/01/09 09:24:32;;;;;;;5.20;2.00;;;5.50;84.90;;;;;;5018176;28;20189;-75
2022/01/09 09:27:01;;;;;;;4.90;1.95;;;5.50;85.00;;;;;;5005603;28;20237;-75
2022/01/09 09:29:29;;;;;;;5.78;2.10;;;5.50;85.10;;;;;;5016189;28;20895;-75
2022/01/09 09:31:57;;;;;;;7.28;2.47;;;5.50;85.00;;;;;;5004548;28;20732;-75
2022/01/09 09:34:25;;;;;;;4.75;1.67;;;5.50;85.10;;;;;;5017805;28;20240;-75
2022/01/09 09:36:53;;;;;;;4.50;2.40;;;5.50;85.10;;;;;;5013362;28;20946;-74
2022/01/09 09:39:22;;;;;;;4.57;2.15;;;5.50;85.10;;;;;;5001416;28;20210;-74
2022/01/09 09:41:51;;;;;;;5.70;2.05;;;5.50;85.10;;;;;;5019316;28;20193;-75
2022/01/09 09:44:19;;;;;;;5.93;3.38;;;5.50;85.10;;;;;;5017356;28;20229;-74
2022/01/09 09:46:49;;;;;;;4.95;2.10;;;5.50;85.00;;;;;;5000852;28;20248;-74
2022/01/09 09:49:17;;;;;;;7.90;2.00;;;5.60;84.90;;;;;;5015519;28;20674;-74
2022/01/09 09:51:46;;;;;;;6.38;2.30;;;5.50;85.00;;;;;;5013841;28;20249;-74
2022/01/09 09:54:13;;;;;;;6.75;1.90;;;5.50;85.00;;;;;;5015316;28;20210;-74
2022/01/09 09:56:43;;;;;;;5.60;2.72;;;5.50;84.90;;;;;;4996923;28;20252;-74
2022/01/09 09:59:11;;;;;;;5.05;2.10;;;5.50;85.10;;;;;;5003248;28;20305;-74
2022/01/09 10:01:42;;;;;;;9.27;2.10;;;5.50;85.00;;;;;;5010335;28;20225;-74
2022/01/09 10:04:10;;;;;;;8.38;2.85;;;5.50;85.00;;;;;;4998124;28;20198;-75
2022/01/09 10:06:42;;;;;;;5.57;2.40;;;5.50;85.10;;;;;;5014468;28;20261;-74
2022/01/09 10:09:12;;;;;;;4.20;2.38;;;5.60;85.00;;;;;;5010948;28;20211;-74
2022/01/09 10:11:52;;;;;;;4.82;2.53;;;5.50;85.20;;;;;;5003639;28;20674;-74
2022/01/09 10:14:22;;;;;;;5.90;2.88;;;5.60;85.30;;;;;;4997711;28;21026;-74
2022/01/09 10:17:09;;;;;;;7.47;2.50;;;5.60;85.10;;;;;;5016619;28;20292;-74
2022/01/09 10:19:46;;;;;;;11.35;3.22;;;5.60;85.20;;;;;;5009668;28;20829;-74
2022/01/09 10:22:28;;;;;;;7.90;2.67;;;5.60;85.20;;;;;;5020996;28;20206;-74
2022/01/09 10:24:57;;;;;;;13.98;3.20;;;5.60;85.30;;;;;;5005669;28;20201;-75
2022/01/09 10:27:31;;;;;;;5.43;2.55;;;5.50;85.50;;;;;;5014487;28;20233;-75
2022/01/09 10:30:00;;;;;;;6.05;2.50;;;5.60;85.50;;;;;;5001263;28;20212;-74
2022/01/09 10:32:29;;;;;;;10.82;5.05;;;5.60;85.30;;;;;;5000737;28;20311;-74
2022/01/09 10:35:09;;;;;;;8.13;2.53;;;5.60;85.30;;;;;;5015084;28;20228;-75
2022/01/09 10:37:38;;;;;;;5.88;2.00;;;5.70;85.40;;;;;;5008908;28;20229;-74
2022/01/09 10:40:09;;;;;;;7.97;3.13;;;5.70;85.20;;;;;;5016394;28;20193;-74
2022/01/09 10:42:39;;;;;;;6.15;2.58;;;5.80;85.20;;;;;;4997930;28;20434;-74
2022/01/09 10:45:21;;;;;;;6.82;2.55;;;5.80;85.10;;;;;;5011609;28;20198;-75
2022/01/09 10:47:49;;;;;;;4.65;2.00;;;5.80;85.20;;;;;;5000718;28;20209;-74
2022/01/09 10:50:29;;;;;;;6.93;2.00;;;5.80;85.10;;;;;;5001148;28;20228;-74
2022/01/09 10:53:21;;;;;;;5.15;2.03;;;5.80;85.00;;;;;;5015991;28;20259;-74
2022/01/09 10:56:02;;;;;;;7.93;2.17;;;5.80;85.10;;;;;;4996268;28;20229;-74
2022/01/09 10:58:34;;;;;;;6.32;2.47;;;5.80;85.20;;;;;;5018985;28;20580;-74
2022/01/09 11:01:18;;;;;;;7.85;2.10;;;5.90;85.00;;;;;;5015495;28;20812;-74
2022/01/09 11:03:48;;;;;;;5.20;2.38;;;5.90;85.20;;;;;;5013624;28;20194;-74
2022/01/09 11:06:17;;;;;;;4.60;2.10;;;5.90;85.20;;;;;;5002702;28;20225;-74
2022/01/09 11:08:46;;;;;;;7.50;2.78;;;6.00;85.20;;;;;;5014381;28;20290;-74
2022/01/09 11:11:25;;;;;;;10.93;2.78;;;6.00;85.10;;;;;;5017407;28;20209;-74
2022/01/09 11:13:56;;;;;;;6.30;2.30;;;6.10;85.00;;;;;;5014925;28;20207;-74
2022/01/09 11:16:36;;;;;;;7.45;2.65;;;6.10;84.90;;;;;;5014002;28;20238;-75
2022/01/09 11:19:09;;;;;;;6.35;2.40;;;6.00;84.80;;;;;;4998003;28;20197;-74
2022/01/09 11:21:39;;;;;;;7.00;2.40;;;6.10;84.80;;;;;;5010823;28;20211;-75
2022/01/09 11:24:22;;;;;;;7.05;2.53;;;6.10;84.70;;;;;;5009635;28;20202;-74
2022/01/09 11:26:54;;;;;;;7.90;2.50;;;6.10;84.60;;;;;;5015414;28;20229;-74
2022/01/09 11:29:32;;;;;;;7.18;2.70;;;6.00;84.30;;;;;;5011699;28;20201;-74
2022/01/09 11:32:09;;;;;;;8.02;2.72;;;6.00;84.50;;;;;;4995281;28;20240;-74
2022/01/09 11:34:48;;;;;;;9.95;2.75;;;6.00;84.80;;;;;;5015295;28;20221;-74
2022/01/09 11:37:23;;;;;;;8.27;2.70;;;6.00;84.70;;;;;;5017080;28;20240;-74
2022/01/09 11:39:52;;;;;;;11.13;3.17;;;6.10;84.70;;;;;;5010918;28;20213;-75
2022/01/09 11:42:20;;;;;;;6.88;1.95;;;6.10;84.60;;;;;;5022078;28;20198;-75
2022/01/09 11:44:52;;;;;;;6.10;2.40;;;6.10;84.50;;;;;;4999111;28;20272;-74
2022/01/09 11:47:22;;;;;;;11.18;2.70;;;6.10;84.50;;;;;;5014266;28;20286;-74
2022/01/09 11:50:08;;;;;;;11.82;2.70;;;6.10;84.50;;;;;;4963739;28;21064;-75
2022/01/09 11:53:01;;;;;;;7.28;2.60;;;6.10;84.30;;;;;;4995799;28;20210;-75
2022/01/09 11:55:38;;;;;;;10.93;2.75;;;6.10;84.00;;;;;;5014624;28;20217;-74
2022/01/09 11:58:09;;;;;;;6.80;2.80;;;6.10;84.00;;;;;;5012750;28;20198;-75
2022/01/09 12:00:39;;;;;;;9.48;2.78;;;6.10;84.00;;;;;;4995249;28;20233;-74
2022/01/09 12:03:36;;;;;;;11.85;2.75;;;6.10;83.80;;;;;;5011839;28;20224;-74
2022/01/09 12:06:06;;;;;;;8.90;3.00;;;6.10;83.90;;;;;;4995526;28;20219;-74
2022/01/09 12:09:08;;;;;;;15.73;3.05;;;6.10;83.90;;;;;;5017966;28;20216;-74
2022/01/09 12:12:09;;;;;;;8.50;2.20;;;6.10;83.90;;;;;;5014982;28;20838;-74
2022/01/09 12:15:01;;;;;;;8.65;2.50;;;6.10;83.70;;;;;;5013302;28;20222;-75
2022/01/09 12:17:42;;;;;;;7.68;2.33;;;6.10;83.40;;;;;;5014941;28;20239;-74
2022/01/09 12:20:26;;;;;;;7.88;2.50;;;6.00;83.50;;;;;;5014305;28;20202;-74
2022/01/09 12:23:04;;;;;;;12.88;2.92;;;6.00;83.50;;;;;;5000706;28;20208;-74
2022/01/09 12:25:44;;;;;;;8.88;2.65;;;6.00;83.50;;;;;;5010584;28;20721;-74
2022/01/09 12:28:14;;;;;;;10.75;3.55;;;6.10;83.50;;;;;;5012883;28;20206;-74
2022/01/09 12:30:48;;;;;;;12.18;3.45;;;6.10;83.50;;;;;;5011458;28;20787;-74
2022/01/09 12:33:49;;;;;;;12.18;2.40;;;6.10;83.50;;;;;;4996900;28;20201;-74
2022/01/09 12:36:30;;;;;;;9.90;2.67;;;6.00;83.40;;;;;;5001487;28;20247;-75
2022/01/09 12:39:02;;;;;;;8.82;2.60;;;6.00;83.50;;;;;;5015384;28;20208;-74
2022/01/09 12:41:36;;;;;;;7.72;2.90;;;6.00;83.20;;;;;;4995106;28;20229;-74
2022/01/09 12:44:08;;;;;;;7.95;2.30;;;6.10;83.30;;;;;;4997389;28;20740;-74
2022/01/09 12:46:41;;;;;;;9.02;3.20;;;6.00;83.40;;;;;;5017244;28;20260;-74
2022/01/09 12:49:14;;;;;;;7.07;2.35;;;6.00;83.20;;;;;;5013300;28;20301;-74
2022/01/09 12:51:47;;;;;;;8.25;2.65;;;6.00;83.30;;;;;;5017854;28;20208;-74
2022/01/09 12:54:15;;;;;;;9.15;2.10;;;6.10;83.20;;;;;;5014736;28;20211;-75
2022/01/09 12:56:45;;;;;;;6.40;2.75;;;6.10;83.20;;;;;;5014572;28;20227;-74
2022/01/09 12:59:14;;;;;;;6.30;2.60;;;6.10;83.20;;;;;;5018290;28;20198;-75
2022/01/09 13:01:44;;;;;;;8.32;2.42;;;6.10;83.10;;;;;;5016403;28;20795;-74
2022/01/09 13:04:15;;;;;;;12.48;2.50;;;6.10;83.00;;;;;;5004582;28;20770;-74
2022/01/09 13:06:45;;;;;;;9.55;2.72;;;6.10;83.00;;;;;;5017091;28;20220;-74
2022/01/09 13:09:16;;;;;;;9.50;3.15;;;6.20;83.30;;;;;;5013708;28;20209;-74
2022/01/09 13:11:54;;;;;;;9.05;2.03;;;6.30;83.50;;;;;;5016375;28;20273;-74